LOWWLZTT

Guest
Details From LOWW - Wien Schwechat
To LZTT - POPRAD TATRY
Flight Number -
Tags generated
Created
Modified
Stats Distance 157 nm / 291 km
Max Altitude 11,000 ft / 3,353 m
Waypoints 3
Social Downloads 0
Likes 0
Share VATSIM

Download

Looking for another format? Having issues loading an existing format? Contact us
Advertisement - Login to hide

Notes

Basic altitude profile: - Ascent Rate: 2500ft/min - Ascent Speed: 250kts - Cruise Altitude: 35000ft - Cruise Speed: 420kts - Descent Rate: 1500ft/min - Descent Speed: 250kts Options: - Use NATs: yes - Use PACOTS: yes - Use low airways: yes - Use high airways: yes

Route

LOWW RIMIT LZTT

ID Type Via Altitude Latitude Longitude Leg Dist Tot Dist Heading (true) Name
O LOWW APT - 0 ft / 0 m 48.11007˚ 16.56964˚ - 0 nm - Wien Schwechat
RIMIT FIX - 11,000 ft / 3,353 m 48.73667˚ 18.91722˚ 100 nm 100 nm 67° / 69° -
O LZTT APT - 0 ft / 0 m 49.07216˚ 20.24126˚ 56 nm 156 nm 68° / 69° POPRAD TATRY

Altitude Profile

Advertisement - Login to hide

LOWW

Details ICAO LOWW (VIE)
Name Wien Schwechat
Region Austria
Timezone Europe/Vienna (UTC+1.0)
Stats Elevation 600 ft / 183 m (AMSL)
Location 48.110068° 16.569637°
Runways 2
Magnetic Variation 4.256° E

METAR

LOWW 121020Z 17005KT 140V200 9999 -RA FEW040 SCT050 BKN060 07/05 Q1007 NOSIG

Decode

TAF

TAF LOWW 120515Z 1206/1312 29012KT CAVOK TX09/1206Z TN03/1305Z TEMPO 1206/1212 22006KT 9999 -RA OVC040 TEMPO 1212/1224 33012KT 9999 -RA FEW050 BKN060

Decode

Departure Runways

ID Width Length Bearing (true) Bearing (mag) Surface Threshold Offset Overrun Length
11 148 ft / 45 m 11,457 ft / 3,492 m 115.99° 111.73° Asphalt 0 ft / 0 m 0 ft / 0 m
16 148 ft / 45 m 11,811 ft / 3,600 m 164.23° 159.97° Asphalt 0 ft / 0 m 33 ft / 10 m
29 148 ft / 45 m 11,457 ft / 3,492 m 296.03° 291.77° Asphalt 0 ft / 0 m 0 ft / 0 m
34 148 ft / 45 m 11,811 ft / 3,600 m 344.24° 339.98° Asphalt 0 ft / 0 m 0 ft / 0 m

LZTT

Details ICAO LZTT (TAT)
Name POPRAD TATRY
Region Slovakia
Timezone Europe/Bratislava (UTC+1.0)
Stats Elevation 2,355 ft / 718 m (AMSL)
Location 49.072159° 20.241258°
Runways 2
Magnetic Variation 5.169° E

METAR

LZTT 121030Z 23010KT 190V250 9999 BKN030 10/04 Q1004 NOSIG

Decode

TAF

Not found

Destination Runways

ID Width Length Bearing (true) Bearing (mag) Surface Threshold Offset Overrun Length
07 269 ft / 82 m 2,492 ft / 760 m 73.54° 68.37° Grass 0 ft / 0 m 0 ft / 0 m
09 148 ft / 45 m 8,478 ft / 2,584 m 94.19° 89.02° Concrete 0 ft / 0 m 0 ft / 0 m
25 269 ft / 82 m 2,492 ft / 760 m 253.55° 248.38° Grass 0 ft / 0 m 0 ft / 0 m
27 148 ft / 45 m 8,478 ft / 2,584 m 274.21° 269.04° Concrete 0 ft / 0 m 0 ft / 0 m

Approach Navaids

Runway Type Ident Frequency Range Bearing (true) Bearing (mag) Slope Elevation
27 Localiser TT 110.10 MHz 18 nm / 33 km 274.21° 269.04° - 2,279 ft / 695 m (AMSL)
27 Glidescope TT 110.10 MHz 10 nm / 19 km 274.20° 269.03° 3.50° 2,279 ft / 695 m (AMSL)

Popular Alternatives